createdAt,value
2022-08-28T00:01:57.305Z,89.19
2022-08-28T00:04:23.748Z,85.15
2022-08-28T00:06:50.170Z,84.54
2022-08-28T00:09:16.612Z,83.63
2022-08-28T00:11:43.136Z,83.73
2022-08-28T00:14:10.652Z,83.43
2022-08-28T00:16:38.532Z,86.47
2022-08-28T00:19:05.870Z,86.22
2022-08-28T00:21:37.068Z,89.33
2022-08-28T00:24:03.772Z,86.40
2022-08-28T00:26:48.802Z,85.49
2022-08-28T00:29:15.194Z,84.69
2022-08-28T00:31:41.674Z,96.12
2022-08-28T00:34:09.348Z,88.74
2022-08-28T00:36:37.153Z,91.73
2022-08-28T00:39:05.877Z,92.66
2022-08-28T00:41:34.441Z,87.53
2022-08-28T00:44:21.902Z,88.38
2022-08-28T00:46:50.944Z,88.00
2022-08-28T00:49:21.058Z,89.83
2022-08-28T00:52:07.409Z,88.90
2022-08-28T00:54:38.701Z,89.80
2022-08-28T00:57:08.748Z,87.55
2022-08-28T00:59:36.233Z,90.31
2022-08-28T01:02:03.642Z,93.50
2022-08-28T01:04:32.318Z,91.77
2022-08-28T01:07:02.202Z,89.73
2022-08-28T01:09:31.807Z,96.59
2022-08-28T01:12:03.518Z,100.00
2022-08-28T01:14:32.073Z,96.89
2022-08-28T01:16:58.854Z,100.00
2022-08-28T01:19:56.955Z,100.00
2022-08-28T01:22:44.331Z,99.85
2022-08-28T01:25:16.680Z,96.10
2022-08-28T01:27:43.188Z,94.69
2022-08-28T01:30:18.005Z,92.18
2022-08-28T01:32:48.155Z,90.40
2022-08-28T01:35:17.867Z,89.99
2022-08-28T01:37:44.874Z,90.87
2022-08-28T01:40:14.962Z,88.28
2022-08-28T01:42:43.453Z,87.76
2022-08-28T01:45:13.624Z,88.80
2022-08-28T01:47:41.597Z,88.70
2022-08-28T01:50:10.731Z,88.06
2022-08-28T01:52:38.987Z,89.27
2022-08-28T01:55:07.162Z,90.94
2022-08-28T01:57:34.976Z,91.85
2022-08-28T02:00:01.676Z,90.07
2022-08-28T02:02:29.185Z,89.53
2022-08-28T02:04:55.577Z,93.60
2022-08-28T02:07:21.949Z,90.24
2022-08-28T02:09:48.336Z,88.99
2022-08-28T02:12:14.756Z,90.00
2022-08-28T02:14:41.205Z,89.34
2022-08-28T02:17:07.601Z,98.40
2022-08-28T02:19:34.134Z,92.69
2022-08-28T02:22:00.587Z,92.91
2022-08-28T02:24:27.039Z,91.83
2022-08-28T02:26:53.547Z,89.62
2022-08-28T02:29:19.973Z,92.40
2022-08-28T02:31:46.350Z,100.00
2022-08-28T02:34:12.750Z,98.22
2022-08-28T02:36:42.559Z,94.39
2022-08-28T02:39:09.378Z,92.34
2022-08-28T02:41:35.912Z,88.85
2022-08-28T02:44:02.487Z,88.74
2022-08-28T02:46:29.089Z,89.43
2022-08-28T02:48:56.160Z,89.26
2022-08-28T02:51:23.157Z,90.30
2022-08-28T02:53:50.442Z,90.55
2022-08-28T02:56:17.145Z,89.47
2022-08-28T02:58:44.134Z,95.98
2022-08-28T03:01:13.439Z,93.85
2022-08-28T03:03:41.438Z,96.15
2022-08-28T03:06:08.709Z,94.46
2022-08-28T03:08:35.209Z,98.80
2022-08-28T03:11:01.788Z,99.74
2022-08-28T03:13:28.461Z,95.11
2022-08-28T03:15:55.650Z,94.23
2022-08-28T03:18:23.225Z,94.96
2022-08-28T03:20:49.662Z,93.42
2022-08-28T03:23:27.806Z,92.88
2022-08-28T03:26:05.051Z,91.59
2022-08-28T03:28:35.041Z,93.76
2022-08-28T03:31:02.402Z,93.33
2022-08-28T03:33:28.880Z,93.96
2022-08-28T03:35:55.659Z,92.84
2022-08-28T03:38:22.515Z,94.78
2022-08-28T03:40:52.132Z,95.07
2022-08-28T03:43:22.253Z,94.69
2022-08-28T03:45:57.596Z,94.31
2022-08-28T03:48:26.328Z,100.00
2022-08-28T03:50:53.863Z,100.00
2022-08-28T03:53:23.978Z,100.00
2022-08-28T03:55:51.206Z,97.75
2022-08-28T03:58:18.846Z,100.00
2022-08-28T04:00:46.150Z,99.38
2022-08-28T04:03:13.790Z,100.00
2022-08-28T04:05:41.438Z,100.00
2022-08-28T04:08:08.133Z,99.94
2022-08-28T04:10:35.797Z,97.16
2022-08-28T04:13:03.210Z,96.00
2022-08-28T04:15:29.620Z,96.21
2022-08-28T04:17:56.472Z,95.97
2022-08-28T04:20:23.096Z,97.38
2022-08-28T04:22:49.979Z,96.53
2022-08-28T04:25:22.385Z,94.69
2022-08-28T04:27:50.910Z,96.42
2022-08-28T04:30:18.737Z,94.84
2022-08-28T04:32:45.563Z,93.03
2022-08-28T04:35:13.108Z,95.66
2022-08-28T04:37:40.453Z,97.34
2022-08-28T04:40:10.733Z,100.00
2022-08-28T04:42:39.792Z,97.96
2022-08-28T04:45:06.958Z,96.88
2022-08-28T04:47:39.262Z,97.90
2022-08-28T04:50:06.975Z,100.00
2022-08-28T04:52:33.531Z,98.16
2022-08-28T04:55:00.120Z,96.11
2022-08-28T04:57:26.644Z,95.94
2022-08-28T04:59:53.148Z,94.86
2022-08-28T05:02:19.865Z,94.20
2022-08-28T05:04:47.286Z,94.22
2022-08-28T05:07:14.313Z,93.20
2022-08-28T05:09:40.701Z,91.79
2022-08-28T05:12:07.250Z,93.21
2022-08-28T05:14:33.699Z,91.77
2022-08-28T05:17:00.123Z,92.34
2022-08-28T05:19:28.007Z,92.64
2022-08-28T05:21:54.882Z,99.07
2022-08-28T05:24:22.396Z,96.10
2022-08-28T05:26:48.982Z,93.49
2022-08-28T05:29:16.726Z,94.55
2022-08-28T05:31:43.389Z,95.94
2022-08-28T05:34:10.490Z,98.30
2022-08-28T05:36:38.148Z,95.41
2022-08-28T05:39:08.092Z,93.86
2022-08-28T05:41:34.606Z,93.21
2022-08-28T05:44:04.705Z,93.46
2022-08-28T05:46:31.711Z,96.05
2022-08-28T05:49:00.130Z,93.67
2022-08-28T05:51:27.538Z,97.41
2022-08-28T05:53:54.906Z,96.15
2022-08-28T05:56:25.796Z,100.00
2022-08-28T05:58:52.611Z,99.47
2022-08-28T06:01:28.583Z,97.37
2022-08-28T06:03:58.572Z,94.43
2022-08-28T06:06:27.513Z,96.74
2022-08-28T06:09:00.126Z,91.93
2022-08-28T06:11:30.348Z,91.91
2022-08-28T06:14:02.599Z,91.65
2022-08-28T06:16:31.119Z,84.59
2022-08-28T06:18:58.113Z,85.11
2022-08-28T06:21:24.928Z,81.83
2022-08-28T06:23:51.893Z,84.27
2022-08-28T06:26:18.619Z,85.51
2022-08-28T06:28:45.021Z,83.09
2022-08-28T06:31:23.772Z,81.56
2022-08-28T06:33:56.084Z,79.90
2022-08-28T06:36:27.456Z,78.23
2022-08-28T06:38:54.952Z,79.65
2022-08-28T06:41:21.839Z,74.85
2022-08-28T06:43:48.258Z,73.75
2022-08-28T06:46:14.778Z,70.23
2022-08-28T06:48:41.423Z,73.03
2022-08-28T06:51:09.938Z,72.67
2022-08-28T06:53:37.757Z,70.90
2022-08-28T06:56:26.570Z,72.36
2022-08-28T06:58:55.090Z,70.40
2022-08-28T07:01:25.719Z,69.50
2022-08-28T07:03:53.882Z,70.14
2022-08-28T07:06:23.335Z,70.61
2022-08-28T07:08:51.012Z,71.02
2022-08-28T07:11:26.202Z,69.30
2022-08-28T07:13:53.870Z,67.92
2022-08-28T07:16:22.403Z,68.72
2022-08-28T07:18:48.962Z,69.34
2022-08-28T07:21:15.602Z,67.23
2022-08-28T07:23:44.217Z,65.26
2022-08-28T07:26:17.646Z,69.82
2022-08-28T07:28:45.352Z,68.50
2022-08-28T07:31:18.530Z,67.00
2022-08-28T07:33:45.358Z,64.80
2022-08-28T07:36:15.760Z,67.02
2022-08-28T07:38:52.420Z,64.13
2022-08-28T07:41:26.551Z,65.20
2022-08-28T07:44:11.830Z,62.40
2022-08-28T07:46:39.561Z,63.16
2022-08-28T07:49:07.604Z,61.04
2022-08-28T07:51:35.066Z,61.75
2022-08-28T07:54:03.818Z,60.17
2022-08-28T07:56:30.948Z,61.93
2022-08-28T07:58:58.806Z,57.39
2022-08-28T08:01:27.086Z,59.75
2022-08-28T08:03:55.946Z,56.55
2022-08-28T08:06:33.831Z,56.87
2022-08-28T08:09:01.863Z,56.23
2022-08-28T08:11:28.431Z,56.84
2022-08-28T08:14:03.813Z,54.94
2022-08-28T08:16:34.597Z,56.92
2022-08-28T08:19:02.332Z,53.56
2022-08-28T08:21:30.559Z,54.29
2022-08-28T08:23:58.264Z,55.92
2022-08-28T08:26:28.217Z,55.39
2022-08-28T08:28:56.618Z,56.62
2022-08-28T08:31:32.838Z,53.26
2022-08-28T08:34:01.968Z,56.89
2022-08-28T08:36:29.724Z,54.61
2022-08-28T08:38:59.848Z,53.25
2022-08-28T08:41:38.974Z,52.53
2022-08-28T08:44:13.828Z,51.60
2022-08-28T08:46:49.453Z,52.03
2022-08-28T08:49:22.610Z,53.97
2022-08-28T08:52:04.999Z,51.41
2022-08-28T08:54:31.716Z,52.93
2022-08-28T08:57:02.162Z,52.21
2022-08-28T08:59:31.908Z,55.84
2022-08-28T09:02:07.204Z,54.68
2022-08-28T09:04:42.858Z,55.15
2022-08-28T09:07:27.343Z,58.60
2022-08-28T09:09:56.164Z,57.66
2022-08-28T09:12:27.959Z,55.96
2022-08-28T09:15:17.561Z,56.28
2022-08-28T09:17:54.478Z,55.90
2022-08-28T09:20:32.641Z,57.59
2022-08-28T09:23:00.275Z,55.95
2022-08-28T09:25:51.430Z,57.51
2022-08-28T09:28:28.195Z,57.86
2022-08-28T09:31:31.744Z,60.25
2022-08-28T09:34:19.436Z,56.65
2022-08-28T09:36:46.101Z,55.81
2022-08-28T09:39:19.959Z,57.30
2022-08-28T09:42:12.172Z,57.33
2022-08-28T09:45:14.941Z,59.42
2022-08-28T09:47:48.828Z,59.05
2022-08-28T09:50:23.718Z,56.80
2022-08-28T09:52:51.878Z,54.63
2022-08-28T09:55:27.093Z,53.43
2022-08-28T09:57:54.554Z,53.79
2022-08-28T10:00:22.769Z,56.39
2022-08-28T10:03:17.298Z,59.25
2022-08-28T10:06:01.630Z,59.71
2022-08-28T10:08:56.369Z,60.44
2022-08-28T10:12:01.778Z,59.36
2022-08-28T10:14:53.060Z,58.98
2022-08-28T10:17:49.929Z,59.28
2022-08-28T10:20:39.980Z,57.81
2022-08-28T10:23:33.741Z,58.03
2022-08-28T10:26:23.778Z,58.97
2022-08-28T10:29:18.156Z,58.63
2022-08-28T10:32:07.219Z,59.28
2022-08-28T10:35:18.758Z,60.09
2022-08-28T10:37:51.297Z,60.84
2022-08-28T10:40:29.053Z,61.37
2022-08-28T10:43:08.762Z,61.66
2022-08-28T10:45:35.660Z,61.24
2022-08-28T10:48:18.570Z,59.81
2022-08-28T10:50:49.211Z,55.53
2022-08-28T10:53:21.286Z,54.27
2022-08-28T10:56:02.701Z,51.51
2022-08-28T10:58:34.198Z,55.47
2022-08-28T11:01:05.745Z,55.31
2022-08-28T11:03:40.618Z,53.59
2022-08-28T11:06:28.538Z,53.94
2022-08-28T11:08:58.567Z,55.68
2022-08-28T11:11:46.561Z,56.03
2022-08-28T11:14:24.123Z,57.68
2022-08-28T11:16:51.396Z,56.03
2022-08-28T11:19:17.951Z,53.03
2022-08-28T11:22:00.186Z,53.06
2022-08-28T11:24:44.113Z,54.18
2022-08-28T11:27:26.856Z,55.45
2022-08-28T11:29:58.317Z,56.78
2022-08-28T11:32:39.027Z,57.90
2022-08-28T11:35:37.886Z,57.67
2022-08-28T11:38:04.946Z,57.31
2022-08-28T11:40:31.793Z,57.70
2022-08-28T11:43:17.039Z,55.09
2022-08-28T11:45:45.816Z,55.65
2022-08-28T11:48:22.820Z,53.61
2022-08-28T11:50:57.004Z,54.35
2022-08-28T11:53:32.550Z,53.89
2022-08-28T11:56:31.817Z,52.39
2022-08-28T11:59:07.940Z,53.83
2022-08-28T12:01:36.810Z,54.91
2022-08-28T12:04:08.426Z,53.12
2022-08-28T12:06:54.468Z,52.20
2022-08-28T12:09:43.113Z,53.29
2022-08-28T12:12:21.616Z,55.30
2022-08-28T12:14:47.961Z,55.81
2022-08-28T12:17:17.328Z,53.39
2022-08-28T12:19:56.377Z,51.05
2022-08-28T12:22:26.508Z,53.62
2022-08-28T12:25:04.528Z,54.52
2022-08-28T12:27:31.825Z,54.56
2022-08-28T12:30:01.937Z,55.84
2022-08-28T12:32:39.491Z,55.15
2022-08-28T12:35:20.549Z,55.72
2022-08-28T12:38:09.285Z,55.27
2022-08-28T12:40:41.567Z,54.92
2022-08-28T12:43:11.241Z,53.60
2022-08-28T12:46:02.399Z,54.28
2022-08-28T12:48:33.045Z,54.48
2022-08-28T12:51:06.044Z,55.13
2022-08-28T12:53:40.618Z,54.78
2022-08-28T12:56:10.153Z,49.79
2022-08-28T12:58:39.380Z,46.84
2022-08-28T13:01:27.487Z,42.82
2022-08-28T13:04:01.422Z,44.51
2022-08-28T13:06:35.882Z,46.44
2022-08-28T13:09:14.381Z,50.20
2022-08-28T13:11:46.548Z,52.99
2022-08-28T13:14:13.128Z,56.74
2022-08-28T13:16:43.102Z,55.77
2022-08-28T13:19:14.515Z,51.31
2022-08-28T13:21:46.854Z,47.73
2022-08-28T13:24:27.086Z,44.58
2022-08-28T13:27:16.521Z,44.76
2022-08-28T13:29:59.845Z,50.91
2022-08-28T13:32:27.995Z,53.81
2022-08-28T13:35:09.144Z,54.97
2022-08-28T13:37:58.697Z,55.45
2022-08-28T13:40:56.878Z,56.30
2022-08-28T13:43:26.295Z,58.20
2022-08-28T13:45:53.453Z,59.54
2022-08-28T13:48:25.824Z,59.83
2022-08-28T13:51:07.060Z,48.85
2022-08-28T13:53:36.521Z,41.53
2022-08-28T13:56:03.419Z,41.39
2022-08-28T13:58:29.873Z,39.94
2022-08-28T14:00:56.533Z,41.12
2022-08-28T14:03:39.002Z,47.32
2022-08-28T14:06:14.595Z,53.46
2022-08-28T14:08:43.753Z,57.34
2022-08-28T14:11:12.782Z,58.50
2022-08-28T14:13:40.873Z,58.25
2022-08-28T14:16:16.654Z,58.60
2022-08-28T14:18:43.196Z,57.25
2022-08-28T14:21:09.629Z,58.50
2022-08-28T14:23:36.028Z,55.26
2022-08-28T14:26:04.499Z,53.70
2022-08-28T14:28:30.938Z,55.88
2022-08-28T14:30:57.356Z,57.92
2022-08-28T14:33:23.817Z,57.55
2022-08-28T14:35:50.467Z,58.49
2022-08-28T14:38:17.135Z,59.86
2022-08-28T14:40:44.424Z,49.90
2022-08-28T14:43:12.404Z,44.59
2022-08-28T14:45:49.659Z,40.56
2022-08-28T14:48:18.317Z,37.65
2022-08-28T14:50:47.131Z,38.74
2022-08-28T14:53:13.942Z,37.62
2022-08-28T14:55:50.155Z,36.62
2022-08-28T14:58:18.601Z,41.96
2022-08-28T15:00:48.727Z,46.14
2022-08-28T15:03:16.235Z,51.32
2022-08-28T15:05:42.853Z,53.65
2022-08-28T15:08:14.878Z,53.03
2022-08-28T15:10:42.610Z,53.56
2022-08-28T15:13:10.431Z,53.06
2022-08-28T15:15:39.436Z,55.60
2022-08-28T15:18:07.256Z,55.51
2022-08-28T15:20:45.012Z,55.64
2022-08-28T15:23:13.866Z,56.95
2022-08-28T15:25:40.803Z,55.75
2022-08-28T15:28:07.424Z,57.18
2022-08-28T15:30:34.597Z,58.65
2022-08-28T15:33:01.581Z,60.18
2022-08-28T15:35:28.233Z,58.23
2022-08-28T15:37:54.705Z,60.47
2022-08-28T15:40:40.110Z,60.26
2022-08-28T15:43:07.613Z,58.25
2022-08-28T15:45:39.158Z,58.59
2022-08-28T15:48:06.755Z,59.93
2022-08-28T15:50:33.563Z,61.39
2022-08-28T15:52:59.951Z,62.71
2022-08-28T15:55:26.854Z,62.10
2022-08-28T15:57:54.488Z,61.90
2022-08-28T16:00:21.644Z,61.31
2022-08-28T16:02:48.121Z,61.99
2022-08-28T16:05:15.288Z,61.70
2022-08-28T16:07:42.059Z,63.12
2022-08-28T16:10:09.921Z,62.36
2022-08-28T16:12:39.229Z,61.08
2022-08-28T16:15:06.891Z,60.38
2022-08-28T16:17:33.305Z,61.86
2022-08-28T16:19:59.821Z,62.82
2022-08-28T16:22:26.248Z,61.20
2022-08-28T16:24:52.689Z,61.24
2022-08-28T16:27:19.325Z,59.26
2022-08-28T16:29:49.547Z,59.03
2022-08-28T16:32:19.350Z,57.49
2022-08-28T16:34:45.755Z,58.93
2022-08-28T16:37:12.579Z,53.42
2022-08-28T16:39:38.977Z,52.71
2022-08-28T16:42:05.506Z,51.37
2022-08-28T16:44:32.092Z,49.40
2022-08-28T16:46:58.604Z,48.28
2022-08-28T16:49:25.259Z,46.76
2022-08-28T16:51:51.743Z,50.37
2022-08-28T16:54:18.449Z,49.04
2022-08-28T16:56:45.520Z,47.79
2022-08-28T16:59:12.606Z,50.37
2022-08-28T17:01:40.859Z,46.39
2022-08-28T17:04:10.011Z,46.09
2022-08-28T17:06:36.417Z,51.83
2022-08-28T17:09:02.961Z,49.88
2022-08-28T17:11:29.459Z,53.46
2022-08-28T17:13:56.641Z,58.04
2022-08-28T17:16:23.994Z,55.61
2022-08-28T17:18:52.657Z,52.81
2022-08-28T17:24:04.631Z,55.21
2022-08-28T17:26:31.051Z,55.72
2022-08-28T17:28:57.464Z,59.04
2022-08-28T17:31:24.073Z,61.51
2022-08-28T17:33:50.675Z,64.44
2022-08-28T17:36:30.698Z,67.10
2022-08-28T17:39:02.089Z,68.25
2022-08-28T17:41:28.536Z,69.43
2022-08-28T17:43:54.978Z,70.73
2022-08-28T17:46:21.403Z,70.95
2022-08-28T17:48:53.615Z,73.58
2022-08-28T17:51:23.487Z,72.10
2022-08-28T17:54:10.170Z,74.29
2022-08-28T17:56:36.601Z,74.99
2022-08-28T17:59:03.083Z,75.23
2022-08-28T18:01:29.530Z,76.15
2022-08-28T18:03:56.020Z,77.40
2022-08-28T18:06:22.830Z,77.20
2022-08-28T18:08:51.731Z,79.54
2022-08-28T18:11:19.066Z,75.42
2022-08-28T18:13:46.281Z,80.73
2022-08-28T18:16:12.891Z,81.80
2022-08-28T18:18:39.476Z,82.66
2022-08-28T18:21:06.036Z,83.42
2022-08-28T18:23:32.709Z,83.89
2022-08-28T18:25:59.105Z,83.30
2022-08-28T18:28:26.573Z,85.24
2022-08-28T18:30:53.681Z,85.04
2022-08-28T18:33:22.736Z,84.26
2022-08-28T18:35:50.407Z,83.80
2022-08-28T18:38:18.330Z,86.82
2022-08-28T18:40:45.245Z,88.68
2022-08-28T18:43:12.391Z,90.00
2022-08-28T18:45:38.923Z,90.38
2022-08-28T18:48:07.855Z,87.81
2022-08-28T18:50:35.456Z,92.52
2022-08-28T18:53:02.338Z,92.61
2022-08-28T18:55:30.987Z,94.30
2022-08-28T18:57:59.916Z,95.66
2022-08-28T19:00:26.865Z,96.54
2022-08-28T19:02:53.924Z,96.33
2022-08-28T19:05:21.207Z,93.77
2022-08-28T19:07:48.522Z,93.13
2022-08-28T19:10:32.594Z,88.88
2022-08-28T19:13:01.013Z,89.40
2022-08-28T19:15:28.342Z,91.76
2022-08-28T19:17:55.078Z,91.62
2022-08-28T19:20:21.796Z,91.66
2022-08-28T19:22:48.832Z,91.54
2022-08-28T19:25:27.552Z,89.71
2022-08-28T19:27:58.917Z,89.93
2022-08-28T19:30:26.999Z,90.54
2022-08-28T19:32:53.443Z,89.94
2022-08-28T19:35:19.977Z,89.47
2022-08-28T19:37:46.907Z,88.83
2022-08-28T19:40:14.060Z,90.06
2022-08-28T19:42:40.807Z,88.77
2022-08-28T19:45:09.549Z,87.64
2022-08-28T19:47:37.258Z,90.75
2022-08-28T19:50:05.423Z,88.22
2022-08-28T19:52:33.081Z,90.11
2022-08-28T19:55:00.834Z,85.44
2022-08-28T19:57:27.306Z,88.12
2022-08-28T19:59:53.676Z,88.92
2022-08-28T20:02:22.721Z,86.06
2022-08-28T20:04:49.188Z,84.99
2022-08-28T20:07:15.588Z,87.64
2022-08-28T20:09:42.042Z,86.42
2022-08-28T20:12:08.423Z,84.14
2022-08-28T20:14:35.530Z,86.76
2022-08-28T20:17:01.933Z,85.68
2022-08-28T20:19:28.376Z,85.25
2022-08-28T20:21:54.867Z,84.97
2022-08-28T20:24:24.057Z,83.82
2022-08-28T20:26:51.848Z,81.82
2022-08-28T20:29:18.917Z,81.85
2022-08-28T20:31:47.774Z,81.16
2022-08-28T20:34:17.621Z,81.31
2022-08-28T20:36:44.778Z,79.71
2022-08-28T20:39:12.302Z,78.78
2022-08-28T20:41:40.966Z,78.95
2022-08-28T20:44:09.528Z,79.00
2022-08-28T20:46:40.690Z,79.07
2022-08-28T20:49:10.128Z,78.69
2022-08-28T20:51:54.960Z,79.10
2022-08-28T20:54:22.324Z,83.02
2022-08-28T20:56:50.877Z,82.48
2022-08-28T20:59:18.007Z,79.01
2022-08-28T21:01:44.611Z,78.13
2022-08-28T21:04:11.104Z,79.45
2022-08-28T21:06:38.248Z,79.35
2022-08-28T21:09:04.706Z,78.38
2022-08-28T21:11:31.168Z,78.58
2022-08-28T21:13:57.788Z,78.40
2022-08-28T21:16:24.297Z,77.72
2022-08-28T21:19:14.500Z,78.25
2022-08-28T21:21:37.809Z,78.58
2022-08-28T21:24:06.327Z,77.53
2022-08-28T21:26:33.126Z,78.65
2022-08-28T21:29:00.738Z,78.58
2022-08-28T21:31:27.299Z,78.87
2022-08-28T21:33:53.800Z,78.10
2022-08-28T21:36:20.265Z,77.11
2022-08-28T21:38:47.302Z,77.35
2022-08-28T21:41:14.992Z,77.32
2022-08-28T21:43:44.073Z,77.75
2022-08-28T21:46:13.242Z,77.38
2022-08-28T21:48:41.285Z,78.13
2022-08-28T21:51:10.361Z,82.80
2022-08-28T21:53:37.246Z,80.22
2022-08-28T21:56:04.734Z,79.76
2022-08-28T21:58:31.753Z,78.28
2022-08-28T22:00:58.379Z,78.12
2022-08-28T22:03:26.925Z,78.08
2022-08-28T22:05:54.158Z,76.76
2022-08-28T22:08:23.377Z,76.28
2022-08-28T22:10:49.793Z,79.22
2022-08-28T22:13:17.113Z,77.75
2022-08-28T22:15:45.469Z,77.43
2022-08-28T22:18:13.643Z,78.13
2022-08-28T22:21:00.600Z,76.61
2022-08-28T22:23:29.323Z,75.78
2022-08-28T22:25:55.768Z,76.47
2022-08-28T22:28:22.164Z,76.43
2022-08-28T22:30:48.676Z,75.82
2022-08-28T22:33:15.532Z,76.74
2022-08-28T22:35:41.996Z,76.34
2022-08-28T22:38:08.690Z,76.33
2022-08-28T22:40:35.137Z,76.27
2022-08-28T22:43:01.571Z,75.46
2022-08-28T22:45:27.984Z,75.01
2022-08-28T22:47:54.407Z,75.46
2022-08-28T22:50:20.803Z,76.22
2022-08-28T22:52:50.378Z,75.77
2022-08-28T22:55:19.851Z,77.31
2022-08-28T22:57:46.850Z,78.28
2022-08-28T23:00:17.953Z,78.70
2022-08-28T23:02:44.566Z,76.39
2022-08-28T23:05:11.641Z,79.57
2022-08-28T23:07:38.251Z,76.70
2022-08-28T23:10:05.905Z,74.31
2022-08-28T23:12:34.368Z,73.88
2022-08-28T23:15:02.378Z,73.70
2022-08-28T23:17:28.871Z,73.29
2022-08-28T23:19:55.652Z,74.58
2022-08-28T23:22:22.077Z,74.05
2022-08-28T23:24:48.772Z,73.92
2022-08-28T23:27:35.311Z,73.63
2022-08-28T23:30:04.046Z,73.87
2022-08-28T23:32:30.473Z,73.73
2022-08-28T23:34:56.949Z,73.93
2022-08-28T23:37:23.773Z,73.58
2022-08-28T23:39:50.167Z,73.93
2022-08-28T23:42:17.440Z,73.21
2022-08-28T23:44:43.973Z,73.23
2022-08-28T23:47:12.212Z,73.26
2022-08-28T23:49:41.555Z,72.63
2022-08-28T23:52:11.105Z,73.05
2022-08-28T23:54:38.742Z,73.61
2022-08-28T23:57:05.447Z,73.59
2022-08-28T23:59:32.553Z,73.24
